Time;durP1;ratioP1;P1;durP2;ratioP2;P2;SDS_P1;SDS_P2;PMS_P1;PMS_P2;Temp;Humidity;BMP_temperature;BMP_pressure;BME280_temperature;BME280_humidity;BME280_pressure;Samples;Min_cycle;Max_cycle;Signal;HPM_P1;HPM_P2
2022/05/19 00:01:05;;;;;;;23.88;18.20;;;20.40;99.90;;;;;;5033049;28;20036;-70
2022/05/19 00:03:38;;;;;;;31.92;20.02;;;20.30;99.90;;;;;;5032343;28;20026;-71
2022/05/19 00:06:06;;;;;;;39.50;24.67;;;20.30;99.90;;;;;;5032631;28;20486;-71
2022/05/19 00:08:32;;;;;;;45.28;29.10;;;20.30;99.90;;;;;;5032306;28;20044;-71
2022/05/19 00:11:01;;;;;;;44.92;30.10;;;20.20;99.90;;;;;;5032102;28;20471;-72
2022/05/19 00:13:28;;;;;;;40.80;30.25;;;20.20;99.90;;;;;;5032276;28;20029;-71
2022/05/19 00:15:57;;;;;;;50.00;33.72;;;20.10;99.90;;;;;;5034385;28;20041;-71
2022/05/19 00:18:23;;;;;;;49.38;34.92;;;20.00;99.90;;;;;;5036186;28;20025;-71
2022/05/19 00:20:49;;;;;;;57.00;37.67;;;20.00;99.90;;;;;;5035806;28;20031;-72
2022/05/19 00:23:15;;;;;;;64.32;43.55;;;19.90;99.90;;;;;;5036178;28;20033;-73
2022/05/19 00:25:41;;;;;;;60.63;42.08;;;19.90;99.90;;;;;;5018185;28;20025;-73
2022/05/19 00:28:07;;;;;;;57.28;37.75;;;19.80;99.90;;;;;;5036077;28;20056;-73
2022/05/19 00:30:34;;;;;;;56.83;39.13;;;19.80;99.90;;;;;;5018619;28;20360;-73
2022/05/19 00:33:00;;;;;;;56.15;40.33;;;19.70;99.90;;;;;;5035741;28;20095;-74
2022/05/19 00:35:25;;;;;;;55.63;39.13;;;19.60;99.90;;;;;;5036108;28;20033;-73
2022/05/19 00:37:51;;;;;;;57.67;37.85;;;19.60;99.90;;;;;;5035962;28;20021;-73
2022/05/19 00:40:20;;;;;;;55.20;39.10;;;19.60;99.90;;;;;;5035769;28;20028;-73
2022/05/19 00:42:45;;;;;;;50.60;38.05;;;19.60;99.90;;;;;;5018054;28;20036;-73
2022/05/19 00:45:33;;;;;;;50.92;39.35;;;19.60;99.90;;;;;;5017933;28;20025;-72
2022/05/19 00:48:06;;;;;;;57.08;37.03;;;19.50;99.90;;;;;;5018155;28;20398;-73
2022/05/19 00:50:47;;;;;;;50.08;36.95;;;19.50;99.90;;;;;;5036056;28;20048;-73
2022/05/19 00:53:31;;;;;;;55.35;39.72;;;19.40;99.90;;;;;;5018467;28;20037;-73
2022/05/19 00:56:01;;;;;;;50.58;36.38;;;19.50;99.90;;;;;;5036756;28;20379;-72
2022/05/19 00:58:42;;;;;;;47.05;36.78;;;19.50;99.90;;;;;;5036043;28;20104;-72
2022/05/19 01:01:07;;;;;;;53.83;37.47;;;19.40;99.90;;;;;;5036003;28;20025;-74
2022/05/19 01:03:42;;;;;;;46.75;34.38;;;19.40;99.90;;;;;;5035488;28;20049;-73
2022/05/19 01:06:16;;;;;;;45.40;32.15;;;19.30;99.90;;;;;;5035478;28;20033;-73
2022/05/19 01:08:51;;;;;;;41.45;33.03;;;19.30;99.90;;;;;;5035455;28;20119;-73
2022/05/19 01:11:18;;;;;;;46.58;32.72;;;19.30;99.90;;;;;;5035656;28;20392;-74
2022/05/19 01:13:44;;;;;;;48.17;33.47;;;19.30;99.90;;;;;;5035413;28;20459;-73
2022/05/19 01:16:10;;;;;;;42.63;31.77;;;19.40;99.90;;;;;;5035295;28;20044;-73
2022/05/19 01:18:37;;;;;;;38.00;30.42;;;19.30;99.90;;;;;;5016761;28;20025;-72
2022/05/19 01:21:06;;;;;;;39.33;30.42;;;19.30;99.90;;;;;;5036058;28;20041;-73
2022/05/19 01:23:58;;;;;;;36.83;29.98;;;19.30;99.90;;;;;;5035308;28;20021;-73
2022/05/19 01:26:42;;;;;;;45.63;31.10;;;19.40;99.90;;;;;;5016643;28;20116;-73
2022/05/19 01:29:10;;;;;;;40.90;30.88;;;19.40;99.90;;;;;;5035258;28;20021;-73
2022/05/19 01:31:36;;;;;;;43.33;31.63;;;19.30;99.90;;;;;;5034629;28;20033;-72
2022/05/19 01:34:03;;;;;;;46.92;30.65;;;19.30;99.90;;;;;;5034452;28;20033;-72
2022/05/19 01:36:30;;;;;;;46.13;30.67;;;19.30;99.90;;;;;;5034468;28;20036;-73
2022/05/19 01:39:04;;;;;;;44.25;29.67;;;19.30;99.90;;;;;;5035072;28;20052;-72
2022/05/19 01:41:44;;;;;;;39.40;29.85;;;19.20;99.90;;;;;;5034701;28;20037;-70
2022/05/19 01:44:18;;;;;;;41.05;30.65;;;19.30;99.90;;;;;;5034721;28;20036;-70
2022/05/19 01:46:51;;;;;;;37.88;29.58;;;19.20;99.90;;;;;;5016278;28;20029;-70
2022/05/19 01:49:29;;;;;;;36.53;27.45;;;19.20;99.90;;;;;;5034498;28;20025;-69
2022/05/19 01:52:07;;;;;;;35.13;27.38;;;19.20;99.90;;;;;;5034303;28;20021;-69
2022/05/19 01:55:02;;;;;;;40.40;28.27;;;19.20;99.90;;;;;;5034491;28;20030;-69
2022/05/19 01:57:33;;;;;;;32.28;26.42;;;19.10;99.90;;;;;;5034234;28;20079;-69
2022/05/19 02:00:03;;;;;;;37.10;26.17;;;19.10;99.90;;;;;;5034200;28;20057;-69
2022/05/19 02:03:22;;;;;;;38.28;27.33;;;19.10;99.90;;;;;;5033922;28;20387;-69
2022/05/19 02:05:57;;;;;;;33.65;25.38;;;19.10;99.90;;;;;;4934366;29;20032;-69
2022/05/19 02:08:45;;;;;;;32.08;25.38;;;19.10;99.90;;;;;;4934938;29;20051;-71
2022/05/19 02:11:19;;;;;;;35.05;24.80;;;19.10;99.90;;;;;;5001727;28;20045;-70
2022/05/19 02:13:45;;;;;;;36.97;25.92;;;19.00;99.90;;;;;;5034298;28;20030;-69
2022/05/19 02:16:14;;;;;;;30.95;24.83;;;19.00;99.90;;;;;;5033604;28;20030;-70
2022/05/19 02:18:42;;;;;;;32.38;24.20;;;19.00;99.90;;;;;;5034222;28;20559;-70
2022/05/19 02:21:08;;;;;;;30.02;25.67;;;19.00;99.90;;;;;;5032923;28;20033;-70
2022/05/19 02:23:35;;;;;;;33.42;25.55;;;19.00;99.90;;;;;;5033858;28;20091;-70
2022/05/19 02:26:00;;;;;;;32.08;25.55;;;19.00;99.90;;;;;;5033566;28;20057;-70
2022/05/19 02:28:45;;;;;;;31.90;25.90;;;19.00;99.90;;;;;;5034545;28;20383;-70
2022/05/19 02:31:10;;;;;;;35.30;26.17;;;19.00;99.90;;;;;;5033312;28;20022;-70
2022/05/19 02:33:36;;;;;;;33.67;25.75;;;19.00;99.90;;;;;;5015856;28;20116;-70
2022/05/19 02:36:03;;;;;;;33.03;24.45;;;18.90;99.90;;;;;;5033806;28;20396;-70
2022/05/19 02:38:28;;;;;;;30.88;23.92;;;18.90;99.90;;;;;;5032570;28;20091;-70
2022/05/19 02:40:54;;;;;;;25.80;21.35;;;18.90;99.90;;;;;;5033831;28;20487;-70
2022/05/19 02:43:19;;;;;;;29.20;21.85;;;18.90;99.90;;;;;;5033788;28;20493;-70
2022/05/19 02:45:46;;;;;;;24.92;20.17;;;18.90;99.90;;;;;;5033730;28;20510;-70
2022/05/19 02:48:13;;;;;;;29.00;19.77;;;18.90;99.90;;;;;;5033555;28;20471;-73
2022/05/19 02:50:42;;;;;;;23.52;19.00;;;18.90;99.90;;;;;;5033502;28;20026;-73
2022/05/19 02:53:09;;;;;;;21.27;16.80;;;18.90;99.90;;;;;;5033240;28;20029;-73
2022/05/19 02:55:34;;;;;;;20.70;15.77;;;18.90;99.90;;;;;;5033371;28;20104;-72
2022/05/19 02:58:00;;;;;;;23.50;16.23;;;18.90;99.90;;;;;;5033105;28;20061;-73
2022/05/19 03:00:26;;;;;;;19.27;14.80;;;18.90;99.90;;;;;;5033078;28;20067;-73
2022/05/19 03:02:54;;;;;;;18.63;13.13;;;18.90;99.90;;;;;;5032929;28;20026;-73
2022/05/19 03:05:23;;;;;;;19.73;13.10;;;18.90;99.90;;;;;;5033266;28;20026;-73
2022/05/19 03:07:48;;;;;;;16.45;12.40;;;18.80;99.90;;;;;;5033438;28;20030;-72
2022/05/19 03:10:15;;;;;;;13.93;11.27;;;18.80;99.90;;;;;;5033401;28;20028;-73
2022/05/19 03:12:41;;;;;;;13.68;11.50;;;18.80;99.90;;;;;;5033154;28;20060;-74
2022/05/19 03:15:08;;;;;;;13.02;10.85;;;18.80;99.90;;;;;;5033154;28;20056;-73
2022/05/19 03:17:33;;;;;;;13.90;10.07;;;18.80;99.90;;;;;;5032912;28;20121;-74
2022/05/19 03:19:59;;;;;;;13.15;10.02;;;18.80;99.90;;;;;;5033419;28;20037;-73
2022/05/19 03:22:25;;;;;;;11.88;9.13;;;18.80;99.90;;;;;;5033015;28;20041;-73
2022/05/19 03:24:51;;;;;;;10.88;9.10;;;18.80;99.90;;;;;;5032765;28;20071;-72
2022/05/19 03:27:19;;;;;;;12.52;8.40;;;18.80;99.90;;;;;;5015016;28;20041;-74
2022/05/19 03:29:45;;;;;;;11.73;8.52;;;18.70;99.90;;;;;;5032978;28;20387;-74
2022/05/19 03:32:11;;;;;;;9.82;8.40;;;18.80;99.90;;;;;;5032578;28;20021;-74
2022/05/19 03:34:37;;;;;;;11.32;8.93;;;18.80;99.90;;;;;;5032728;28;20033;-73
2022/05/19 03:37:04;;;;;;;9.27;8.43;;;18.80;99.90;;;;;;5032465;28;20025;-74
2022/05/19 03:39:30;;;;;;;10.52;8.32;;;18.80;99.90;;;;;;5032565;28;20434;-74
2022/05/19 03:41:55;;;;;;;10.50;8.20;;;18.80;99.90;;;;;;5032941;28;20025;-73
2022/05/19 03:44:21;;;;;;;8.48;7.65;;;18.70;99.90;;;;;;5032741;28;20045;-73
2022/05/19 03:46:46;;;;;;;13.80;8.50;;;18.70;99.90;;;;;;5032474;28;20497;-73
2022/05/19 03:49:13;;;;;;;9.15;7.40;;;18.80;99.90;;;;;;5033443;28;20418;-73
2022/05/19 03:51:40;;;;;;;8.32;7.32;;;18.80;99.90;;;;;;5036748;28;20025;-74
2022/05/19 03:54:05;;;;;;;9.02;8.05;;;18.80;99.90;;;;;;5036478;28;20025;-73
2022/05/19 03:56:31;;;;;;;14.90;8.32;;;18.70;99.90;;;;;;5036570;28;20079;-74
2022/05/19 03:58:57;;;;;;;11.65;7.95;;;18.70;99.90;;;;;;5036741;28;20103;-73
2022/05/19 04:01:22;;;;;;;10.73;7.55;;;18.80;99.90;;;;;;5019517;28;20021;-73
2022/05/19 04:03:49;;;;;;;10.55;7.40;;;18.80;99.90;;;;;;5037719;28;20076;-73
2022/05/19 04:06:15;;;;;;;8.65;7.75;;;18.80;99.90;;;;;;5036905;28;20025;-71
2022/05/19 04:08:41;;;;;;;12.15;7.68;;;18.80;99.90;;;;;;5036545;28;20025;-72
2022/05/19 04:11:07;;;;;;;10.25;7.50;;;18.80;99.90;;;;;;5036330;28;20109;-71
2022/05/19 04:13:32;;;;;;;9.50;7.20;;;18.90;99.90;;;;;;5036185;28;20045;-72
2022/05/19 04:15:58;;;;;;;9.85;7.40;;;18.90;99.90;;;;;;5035888;28;20023;-72
2022/05/19 04:18:23;;;;;;;9.27;7.13;;;18.90;99.90;;;;;;5036152;28;20029;-73
2022/05/19 04:20:49;;;;;;;11.55;7.43;;;19.00;99.90;;;;;;5036169;28;20021;-72
2022/05/19 04:23:16;;;;;;;7.88;6.80;;;19.10;99.90;;;;;;5084037;22;20490;-74
2022/05/19 04:25:41;;;;;;;12.02;7.65;;;19.10;99.90;;;;;;5039315;28;20031;-74
2022/05/19 04:28:08;;;;;;;8.63;7.47;;;19.10;99.90;;;;;;5039052;28;20029;-74
2022/05/19 04:30:34;;;;;;;8.55;7.50;;;19.20;99.90;;;;;;5038647;28;20418;-74
2022/05/19 04:32:59;;;;;;;7.72;6.90;;;19.20;99.90;;;;;;5021037;28;20033;-73
2022/05/19 04:35:25;;;;;;;10.07;7.38;;;19.30;99.90;;;;;;5039092;28;20025;-74
2022/05/19 04:37:51;;;;;;;8.98;6.85;;;19.30;99.90;;;;;;5020475;28;20501;-74
2022/05/19 04:40:18;;;;;;;8.63;7.53;;;19.30;99.90;;;;;;5020672;28;20025;-74
2022/05/19 04:42:44;;;;;;;11.90;7.10;;;19.40;99.90;;;;;;5038896;28;20394;-73
2022/05/19 04:45:11;;;;;;;8.18;6.82;;;19.40;99.90;;;;;;5039254;28;20017;-74
2022/05/19 04:47:38;;;;;;;11.00;7.70;;;19.50;99.90;;;;;;5038683;28;20032;-73
2022/05/19 04:50:04;;;;;;;13.43;7.97;;;19.60;99.90;;;;;;5037382;28;20101;-73
2022/05/19 04:52:30;;;;;;;10.95;8.15;;;19.60;99.90;;;;;;5038669;28;20375;-74
2022/05/19 04:54:56;;;;;;;9.27;6.68;;;19.70;99.90;;;;;;5038675;28;20091;-74
2022/05/19 04:57:21;;;;;;;10.95;7.60;;;19.70;99.90;;;;;;5038774;28;20080;-73
2022/05/19 04:59:47;;;;;;;8.90;7.65;;;19.80;99.90;;;;;;5038146;28;20053;-73
2022/05/19 05:02:14;;;;;;;10.73;7.03;;;19.80;99.90;;;;;;5037607;28;20026;-74
2022/05/19 05:04:39;;;;;;;8.45;6.75;;;19.90;99.90;;;;;;5038704;28;20509;-73
2022/05/19 05:07:05;;;;;;;11.73;7.43;;;19.90;99.90;;;;;;5037612;28;20223;-74
2022/05/19 05:09:31;;;;;;;10.13;6.70;;;20.00;99.90;;;;;;5019500;28;20072;-74
2022/05/19 05:11:56;;;;;;;11.02;6.53;;;20.00;99.90;;;;;;5038028;28;20025;-74
2022/05/19 05:14:22;;;;;;;10.50;7.03;;;20.00;99.90;;;;;;5038370;28;20072;-74
2022/05/19 05:16:49;;;;;;;10.38;6.57;;;20.10;99.90;;;;;;5038758;28;20108;-73
2022/05/19 05:19:19;;;;;;;12.60;7.28;;;20.10;99.90;;;;;;5020892;28;20076;-74
2022/05/19 05:21:45;;;;;;;13.20;7.03;;;20.10;99.90;;;;;;5019982;28;20021;-74
2022/05/19 05:24:11;;;;;;;11.25;7.88;;;20.10;99.90;;;;;;5038389;28;20437;-73
2022/05/19 05:26:37;;;;;;;9.02;7.47;;;20.10;99.90;;;;;;5043335;28;20029;-73
2022/05/19 05:29:03;;;;;;;14.13;7.97;;;20.10;99.90;;;;;;5053338;28;20093;-74
2022/05/19 05:31:28;;;;;;;12.20;7.90;;;20.10;99.90;;;;;;5039425;28;20053;-73
2022/05/19 05:33:54;;;;;;;10.93;8.35;;;20.10;99.90;;;;;;5038335;28;20470;-73
2022/05/19 05:36:20;;;;;;;8.55;7.50;;;20.10;99.90;;;;;;5039098;28;20029;-70
2022/05/19 05:38:46;;;;;;;12.48;7.25;;;20.10;99.90;;;;;;5038289;28;20029;-71
2022/05/19 05:41:12;;;;;;;10.95;8.10;;;20.10;99.90;;;;;;5037234;28;20053;-71
2022/05/19 05:43:39;;;;;;;9.15;7.60;;;20.10;99.90;;;;;;5039022;28;20092;-71
2022/05/19 05:46:08;;;;;;;12.82;8.38;;;20.20;99.90;;;;;;5040638;28;20053;-72
2022/05/19 05:48:36;;;;;;;12.63;7.38;;;20.30;99.90;;;;;;5036481;28;20030;-71
2022/05/19 05:51:07;;;;;;;10.43;8.55;;;20.40;99.90;;;;;;5036325;28;20105;-70
2022/05/19 05:53:34;;;;;;;9.63;7.05;;;20.50;99.90;;;;;;5036674;28;20033;-70
2022/05/19 05:55:59;;;;;;;11.02;7.75;;;20.50;99.90;;;;;;5036266;28;20120;-70
2022/05/19 05:58:25;;;;;;;8.50;7.30;;;20.60;99.90;;;;;;5036358;28;20185;-71
2022/05/19 06:00:51;;;;;;;15.32;9.15;;;20.60;99.90;;;;;;5036276;28;20029;-71
2022/05/19 06:03:16;;;;;;;10.77;7.18;;;20.70;99.90;;;;;;5018993;28;20021;-71
2022/05/19 06:05:42;;;;;;;10.60;7.03;;;20.80;99.90;;;;;;5019501;28;20028;-71
2022/05/19 06:08:08;;;;;;;9.25;6.53;;;20.80;99.90;;;;;;5036861;28;20025;-71
2022/05/19 06:10:35;;;;;;;11.18;7.20;;;21.00;99.90;;;;;;5036799;28;20033;-72
2022/05/19 06:13:00;;;;;;;12.55;7.45;;;21.10;99.90;;;;;;5036246;28;20053;-71
2022/05/19 06:15:26;;;;;;;10.23;7.78;;;21.10;99.90;;;;;;5035571;28;20088;-71
2022/05/19 06:17:52;;;;;;;11.57;7.30;;;21.20;99.90;;;;;;5036349;28;20479;-71
2022/05/19 06:20:18;;;;;;;8.98;6.82;;;21.30;99.90;;;;;;5036584;28;20378;-71
2022/05/19 06:22:44;;;;;;;10.15;6.20;;;21.50;99.90;;;;;;5016218;28;20029;-73
2022/05/19 06:25:13;;;;;;;9.77;6.35;;;21.60;99.90;;;;;;5023042;28;20026;-72
2022/05/19 06:27:39;;;;;;;12.73;6.78;;;21.70;99.90;;;;;;5017119;28;20088;-72
2022/05/19 06:30:07;;;;;;;10.70;6.22;;;21.80;99.90;;;;;;5016692;28;20030;-73
2022/05/19 06:32:34;;;;;;;9.05;6.55;;;21.90;99.90;;;;;;5019744;28;20029;-69
2022/05/19 06:34:59;;;;;;;10.73;6.40;;;21.90;99.90;;;;;;5026546;28;20022;-71
2022/05/19 06:37:25;;;;;;;9.27;6.40;;;22.00;99.90;;;;;;5020396;28;20037;-72
2022/05/19 06:39:50;;;;;;;6.72;6.05;;;22.00;99.90;;;;;;5022804;28;20021;-71
2022/05/19 06:42:16;;;;;;;8.60;5.80;;;22.00;99.90;;;;;;5019748;28;20022;-71
2022/05/19 06:44:43;;;;;;;12.00;5.95;;;22.10;99.90;;;;;;5037215;28;20030;-71
2022/05/19 06:47:13;;;;;;;7.65;5.65;;;22.20;99.90;;;;;;5032064;28;20029;-71
2022/05/19 06:49:52;;;;;;;7.95;5.82;;;22.20;99.90;;;;;;5023704;28;20081;-71
2022/05/19 06:52:20;;;;;;;9.43;6.10;;;22.30;99.90;;;;;;5018791;28;20030;-70
2022/05/19 06:54:51;;;;;;;5.85;5.18;;;22.40;99.90;;;;;;5006311;28;20034;-71
2022/05/19 06:57:18;;;;;;;5.38;4.88;;;22.60;99.90;;;;;;5033401;28;20029;-71
2022/05/19 06:59:44;;;;;;;7.97;5.18;;;22.60;99.90;;;;;;5034370;28;20028;-71
2022/05/19 07:02:10;;;;;;;6.18;4.82;;;22.70;99.90;;;;;;5027669;28;20026;-72
2022/05/19 07:04:36;;;;;;;9.40;5.70;;;22.90;99.90;;;;;;5029300;28;20063;-71
2022/05/19 07:07:04;;;;;;;8.25;5.25;;;23.00;99.90;;;;;;5017040;28;20029;-71
2022/05/19 07:09:31;;;;;;;7.15;5.18;;;23.10;99.90;;;;;;5016358;28;20450;-71
2022/05/19 07:11:57;;;;;;;10.82;5.07;;;23.30;99.90;;;;;;5015338;28;20085;-71
2022/05/19 07:14:23;;;;;;;4.93;4.40;;;23.40;99.90;;;;;;5016865;28;20022;-72
2022/05/19 07:16:49;;;;;;;5.82;4.10;;;23.60;99.90;;;;;;5028842;28;20069;-71
2022/05/19 07:22:04;;;;;;;6.80;4.65;;;23.90;99.90;;;;;;5036468;28;20079;-72
2022/05/19 07:24:29;;;;;;;7.10;4.95;;;24.00;99.90;;;;;;5036304;28;20021;-72
2022/05/19 07:26:56;;;;;;;11.98;4.30;;;24.20;99.90;;;;;;5031906;28;20265;-72
2022/05/19 07:29:23;;;;;;;4.95;3.75;;;24.30;99.90;;;;;;5025582;28;20030;-72
2022/05/19 07:31:50;;;;;;;6.07;4.30;;;24.50;99.90;;;;;;5022869;28;20030;-71
2022/05/19 07:34:19;;;;;;;7.20;4.35;;;24.60;99.90;;;;;;5020788;28;20030;-72
2022/05/19 07:36:44;;;;;;;4.60;4.00;;;24.80;99.90;;;;;;5016119;28;20399;-72
2022/05/19 07:39:11;;;;;;;5.07;3.80;;;25.00;99.90;;;;;;5026127;28;20053;-71
2022/05/19 07:41:38;;;;;;;5.90;3.78;;;25.20;99.90;;;;;;5007922;28;20076;-71
2022/05/19 07:44:04;;;;;;;6.93;3.92;;;25.50;99.90;;;;;;5029429;28;20013;-70
2022/05/19 07:46:30;;;;;;;4.60;3.65;;;25.60;99.90;;;;;;5033597;28;20017;-71
2022/05/19 07:48:56;;;;;;;8.93;4.72;;;25.60;99.90;;;;;;5034648;28;20022;-70
2022/05/19 07:51:25;;;;;;;5.22;4.05;;;25.60;99.90;;;;;;5034997;28;20014;-70
2022/05/19 07:53:51;;;;;;;4.93;3.78;;;25.70;99.90;;;;;;5034770;28;20021;-71
2022/05/19 07:56:17;;;;;;;5.55;3.67;;;25.80;99.90;;;;;;5034314;28;20497;-71
2022/05/19 07:58:46;;;;;;;9.30;4.00;;;25.70;99.90;;;;;;5033913;28;20033;-71
2022/05/19 08:01:15;;;;;;;6.40;3.80;;;25.70;99.90;;;;;;5034399;28;20040;-71
2022/05/19 08:03:41;;;;;;;7.82;3.90;;;25.70;99.90;;;;;;5034181;28;20017;-71
2022/05/19 08:06:08;;;;;;;7.60;4.00;;;25.70;99.90;;;;;;5031313;28;20028;-71
2022/05/19 08:08:35;;;;;;;8.43;3.53;;;25.70;99.90;;;;;;5032683;28;20017;-71
2022/05/19 08:11:01;;;;;;;5.72;4.43;;;25.80;99.90;;;;;;5034264;28;20028;-72
2022/05/19 08:16:11;;;;;;;8.57;4.10;;;25.70;99.90;;;;;;5034554;28;20036;-71
2022/05/19 08:18:37;;;;;;;8.05;3.60;;;25.80;99.90;;;;;;5034723;28;20444;-72
2022/05/19 08:21:06;;;;;;;7.88;4.00;;;25.90;99.90;;;;;;5032891;28;20045;-72
2022/05/19 08:23:34;;;;;;;9.15;4.13;;;26.10;99.90;;;;;;5034209;28;20041;-72
2022/05/19 08:26:02;;;;;;;7.07;3.95;;;26.20;99.90;;;;;;5034578;28;20022;-72
2022/05/19 08:28:31;;;;;;;4.95;3.65;;;26.30;99.90;;;;;;5016322;28;20038;-72
2022/05/19 08:31:02;;;;;;;5.55;3.60;;;26.40;99.90;;;;;;5034719;28;20033;-72
2022/05/19 08:33:28;;;;;;;4.50;3.90;;;26.50;99.90;;;;;;5034686;28;20029;-72
2022/05/19 08:35:54;;;;;;;5.32;4.15;;;26.50;99.90;;;;;;5035417;28;20087;-72
2022/05/19 08:38:21;;;;;;;7.00;3.58;;;26.60;99.90;;;;;;5037650;28;20025;-72
2022/05/19 08:41:00;;;;;;;4.85;3.65;;;26.60;99.90;;;;;;5018768;28;20041;-72
2022/05/19 08:43:33;;;;;;;7.93;4.15;;;26.80;99.90;;;;;;5038626;28;20102;-72
2022/05/19 08:46:03;;;;;;;4.82;3.83;;;26.90;99.90;;;;;;5055240;28;20076;-72
2022/05/19 08:48:29;;;;;;;8.05;4.63;;;27.00;99.90;;;;;;5039094;28;20025;-72
2022/05/19 08:51:00;;;;;;;6.75;3.95;;;27.30;99.90;;;;;;5037450;28;20040;-72
2022/05/19 08:53:29;;;;;;;7.13;4.20;;;27.40;99.90;;;;;;5021313;28;20032;-72
2022/05/19 08:56:00;;;;;;;8.30;3.60;;;27.60;99.90;;;;;;5041021;28;20022;-72
2022/05/19 08:58:56;;;;;;;6.38;3.55;;;27.70;99.90;;;;;;5042405;28;20029;-72
2022/05/19 09:01:34;;;;;;;7.10;4.20;;;27.80;99.90;;;;;;5023661;28;20024;-71
2022/05/19 09:04:23;;;;;;;7.45;4.13;;;27.80;99.90;;;;;;5045529;28;20028;-71
2022/05/19 09:10:08;;;;;;;6.72;4.35;;;27.80;99.90;;;;;;5034709;28;20105;-72
2022/05/19 09:12:36;;;;;;;;;;;27.90;99.90;;;;;;5033925;28;20013;-72
2022/05/19 09:15:05;;;;;;;7.63;4.25;;;27.80;99.90;;;;;;5035390;28;19909;-72
2022/05/19 09:17:36;;;;;;;8.38;4.78;;;27.80;99.90;;;;;;5037797;28;20072;-72
2022/05/19 09:20:26;;;;;;;6.13;4.40;;;27.80;99.90;;;;;;5037774;28;20014;-72
2022/05/19 09:22:52;;;;;;;5.70;4.47;;;27.70;99.90;;;;;;5014728;28;20096;-72
2022/05/19 09:25:21;;;;;;;10.63;4.78;;;27.60;99.90;;;;;;5017404;28;20045;-72
2022/05/19 09:27:49;;;;;;;7.57;4.40;;;27.60;99.90;;;;;;5037299;28;20025;-72
2022/05/19 09:30:46;;;;;;;8.85;4.60;;;27.60;99.90;;;;;;5037694;28;20025;-72
2022/05/19 09:33:20;;;;;;;8.07;4.43;;;27.80;99.90;;;;;;5036671;28;21200;-72
2022/05/19 09:35:55;;;;;;;4.95;4.20;;;27.90;99.90;;;;;;5037474;28;20032;-71
2022/05/19 09:38:37;;;;;;;8.88;4.25;;;28.00;99.90;;;;;;5035607;28;20152;-71
2022/05/19 09:41:20;;;;;;;9.52;5.32;;;28.00;99.90;;;;;;5037095;28;20032;-71
2022/05/19 09:43:51;;;;;;;10.13;4.88;;;28.10;99.90;;;;;;5037237;28;20028;-71
2022/05/19 09:46:17;;;;;;;5.22;4.30;;;28.20;99.90;;;;;;5037540;28;20017;-71
2022/05/19 09:48:51;;;;;;;5.68;4.45;;;28.30;99.90;;;;;;5039063;28;20076;-71
2022/05/19 09:51:19;;;;;;;4.90;4.38;;;28.30;99.50;;;;;;5045323;28;20039;-71
2022/05/19 09:53:52;;;;;;;7.88;5.47;;;28.30;99.40;;;;;;5039336;28;20461;-71
2022/05/19 09:56:20;;;;;;;9.00;4.97;;;28.30;98.80;;;;;;5019097;28;20389;-71
2022/05/19 09:58:51;;;;;;;6.30;4.43;;;28.30;98.50;;;;;;5037344;28;20116;-71
2022/05/19 10:01:35;;;;;;;8.00;4.50;;;28.30;98.80;;;;;;5020019;28;20377;-71
2022/05/19 10:04:08;;;;;;;8.02;4.65;;;28.20;98.80;;;;;;5035955;28;20536;-71
2022/05/19 10:06:55;;;;;;;4.70;4.10;;;28.20;98.90;;;;;;5034992;28;20096;-71
2022/05/19 10:09:29;;;;;;;4.75;4.15;;;28.30;98.70;;;;;;5032320;28;20022;-71
2022/05/19 10:12:09;;;;;;;9.52;4.40;;;28.30;98.40;;;;;;5036132;28;20531;-71
2022/05/19 10:14:36;;;;;;;7.18;4.90;;;28.30;98.60;;;;;;5032340;28;20112;-71
2022/05/19 10:17:32;;;;;;;7.05;5.00;;;28.40;98.40;;;;;;5035764;28;20061;-71
2022/05/19 10:20:07;;;;;;;6.22;4.78;;;28.60;98.30;;;;;;5035804;28;20048;-71
2022/05/19 10:23:06;;;;;;;6.20;4.50;;;28.60;98.20;;;;;;5032155;28;20375;-71
2022/05/19 10:25:59;;;;;;;9.25;4.85;;;28.70;97.50;;;;;;5035969;28;20014;-71
2022/05/19 10:31:50;;;;;;;8.80;4.75;;;28.60;97.90;;;;;;5035284;28;20036;-71
2022/05/19 10:34:40;;;;;;;6.25;4.80;;;28.50;97.80;;;;;;5017697;28;20108;-71
2022/05/19 10:37:45;;;;;;;6.97;4.90;;;28.50;97.60;;;;;;5033255;28;20057;-71
2022/05/19 10:40:18;;;;;;;7.53;4.53;;;28.60;97.50;;;;;;5035430;28;20027;-70
2022/05/19 10:43:08;;;;;;;6.65;4.05;;;28.60;96.60;;;;;;5033591;28;20021;-71
2022/05/19 10:45:40;;;;;;;5.47;4.25;;;28.50;96.60;;;;;;5034855;28;20151;-71
2022/05/19 10:48:44;;;;;;;7.38;3.78;;;28.40;96.50;;;;;;5032840;28;20048;-70
2022/05/19 10:51:24;;;;;;;6.35;4.38;;;28.50;96.70;;;;;;5035193;28;20116;-71
2022/05/19 10:54:27;;;;;;;4.57;4.18;;;28.60;97.20;;;;;;5016435;28;20025;-70
2022/05/19 10:57:12;;;;;;;11.15;4.53;;;28.60;96.70;;;;;;5016528;28;20038;-70
2022/05/19 10:59:53;;;;;;;7.45;3.95;;;28.70;97.20;;;;;;5016621;28;20049;-71
2022/05/19 11:02:48;;;;;;;5.18;3.80;;;28.80;97.30;;;;;;5017057;28;20025;-71
2022/05/19 11:05:39;;;;;;;6.25;3.88;;;28.90;97.30;;;;;;5027294;28;20082;-70
2022/05/19 11:08:37;;;;;;;6.78;4.53;;;29.00;96.70;;;;;;5024252;28;20076;-71
2022/05/19 11:11:24;;;;;;;5.55;4.07;;;29.20;96.00;;;;;;5020301;28;20037;-72
2022/05/19 11:14:08;;;;;;;5.80;4.07;;;29.30;95.00;;;;;;5010418;28;20033;-71
2022/05/19 11:17:11;;;;;;;6.30;4.15;;;29.30;94.90;;;;;;5023871;28;20361;-71
2022/05/19 11:20:04;;;;;;;4.28;3.60;;;29.20;94.40;;;;;;5027281;28;20152;-71
2022/05/19 11:22:32;;;;;;;4.45;4.05;;;29.00;95.20;;;;;;5032247;28;20026;-71
2022/05/19 11:28:03;;;;;;;6.13;4.10;;;29.10;95.20;;;;;;5030975;28;20483;-70
2022/05/19 11:30:45;;;;;;;4.78;3.85;;;29.20;95.10;;;;;;5043022;28;20021;-71
2022/05/19 11:33:16;;;;;;;6.15;4.38;;;29.40;95.20;;;;;;5049832;28;20026;-72
2022/05/19 11:35:46;;;;;;;6.65;4.75;;;29.50;94.80;;;;;;5045228;28;20056;-71
2022/05/19 11:38:45;;;;;;;4.45;4.05;;;29.60;94.40;;;;;;5046437;28;20064;-71
2022/05/19 11:41:19;;;;;;;6.07;4.32;;;29.60;94.00;;;;;;5030000;28;20029;-71
2022/05/19 11:44:03;;;;;;;4.90;4.30;;;29.70;93.30;;;;;;5048531;28;20017;-73
2022/05/19 11:46:57;;;;;;;4.45;4.00;;;29.60;93.30;;;;;;5048682;28;20025;-71
2022/05/19 11:55:31;;;;;;;7.15;3.88;;;29.80;93.50;;;;;;5044002;28;20031;-72
2022/05/19 11:58:04;;;;;;;5.45;3.67;;;29.90;93.30;;;;;;5039713;28;20033;-72
2022/05/19 12:01:00;;;;;;;5.13;3.42;;;29.90;93.30;;;;;;5015605;28;20375;-72
2022/05/19 12:03:48;;;;;;;5.78;3.55;;;30.00;93.20;;;;;;5020547;28;20021;-72
2022/05/19 12:06:26;;;;;;;7.18;4.45;;;30.10;93.20;;;;;;5047914;28;20024;-72
2022/05/19 12:09:03;;;;;;;5.85;3.40;;;30.10;92.70;;;;;;5037608;28;20025;-72
2022/05/19 12:11:44;;;;;;;8.40;4.55;;;30.00;93.00;;;;;;5029514;28;20045;-73
2022/05/19 12:14:25;;;;;;;6.55;3.72;;;30.00;92.80;;;;;;5016133;28;20046;-72
2022/05/19 12:16:52;;;;;;;;;;;30.00;92.10;;;;;;5032661;28;20036;-72
2022/05/19 12:19:39;;;;;;;5.00;3.60;;;30.00;92.10;;;;;;5029975;28;19985;-72
2022/05/19 12:22:23;;;;;;;4.50;3.78;;;30.00;92.40;;;;;;5029726;28;20507;-72
2022/05/19 12:25:00;;;;;;;7.47;4.30;;;30.10;92.40;;;;;;5030359;28;20017;-72
2022/05/19 12:27:53;;;;;;;6.93;4.15;;;30.20;92.70;;;;;;5038609;28;20064;-73
2022/05/19 12:33:31;;;;;;;4.57;3.80;;;30.30;92.00;;;;;;5041563;28;20072;-72
2022/05/19 12:36:11;;;;;;;6.07;3.50;;;30.40;91.70;;;;;;5034834;28;20029;-72
2022/05/19 12:38:45;;;;;;;7.93;4.10;;;30.40;91.90;;;;;;5022380;28;20022;-72
2022/05/19 12:41:36;;;;;;;5.18;3.78;;;30.30;91.40;;;;;;5023680;28;20037;-72
2022/05/19 12:44:28;;;;;;;6.82;3.50;;;30.30;91.90;;;;;;5019356;28;20044;-72
2022/05/19 12:47:04;;;;;;;4.72;3.35;;;30.30;91.70;;;;;;5037792;28;20026;-73
2022/05/19 12:49:33;;;;;;;3.63;3.33;;;30.20;91.10;;;;;;5040763;28;20025;-72
2022/05/19 12:52:07;;;;;;;5.93;3.72;;;30.10;90.80;;;;;;5032333;28;20021;-72
2022/05/19 12:54:36;;;;;;;4.68;3.13;;;30.10;90.90;;;;;;5030554;28;20021;-73
2022/05/19 12:57:10;;;;;;;4.78;3.97;;;30.00;91.20;;;;;;5035497;28;20045;-73
2022/05/19 12:59:43;;;;;;;9.23;5.00;;;30.00;91.20;;;;;;5042075;28;20022;-72
2022/05/19 13:02:30;;;;;;;9.93;6.70;;;30.00;91.90;;;;;;5037130;28;20029;-71
2022/05/19 13:05:16;;;;;;;5.70;5.15;;;30.00;91.20;;;;;;5030187;28;20036;-71
2022/05/19 13:07:54;;;;;;;6.40;3.90;;;30.00;91.60;;;;;;5036320;28;20021;-71
2022/05/19 13:10:24;;;;;;;5.10;3.90;;;29.90;91.00;;;;;;5034602;28;20077;-71
2022/05/19 13:13:12;;;;;;;5.55;3.47;;;29.90;91.30;;;;;;5040574;28;20025;-71
2022/05/19 13:15:52;;;;;;;6.82;4.63;;;29.90;91.50;;;;;;5033681;28;20037;-72
2022/05/19 13:18:29;;;;;;;4.60;3.90;;;30.00;91.40;;;;;;5020079;28;20395;-72
2022/05/19 13:21:07;;;;;;;5.38;4.15;;;30.00;90.80;;;;;;5021871;28;20034;-71
2022/05/19 13:23:37;;;;;;;6.05;3.75;;;30.00;90.70;;;;;;5001593;28;20044;-71
2022/05/19 13:26:08;;;;;;;4.63;3.60;;;30.10;91.00;;;;;;5020083;28;20026;-71
2022/05/19 13:31:21;;;;;;;7.45;3.95;;;30.20;90.60;;;;;;5018676;28;20033;-71